Terminal Aerodrome Forecast
Issued by NWS

Home | Current Version | Previous Version | Graphics & Text | Print | Product List | Glossary On
Versions: 1 2 3 4 5 6 7 8 9 10 11 12 13 14 15 16 17 18
268
FTUS43 KTOP 111454 AAB
TAFFOE
TAF AMD
KFOE 111454Z 1115/1212 03008KT P6SM SCT012
     FM111800 07007KT P6SM SCT021
     FM112000 14006KT P6SM SCT025 BKN150
     FM120900 32011G20KT P6SM SCT020=

USA.gov is the U.S. government's official web portal to all federal, state and local government web resources and services.